createdAt,value
2022-11-03T00:02:04.781Z,16.30
2022-11-03T00:04:39.575Z,12.97
2022-11-03T00:07:32.955Z,13.10
2022-11-03T00:10:02.832Z,13.83
2022-11-03T00:12:37.221Z,15.43
2022-11-03T00:15:11.189Z,13.17
2022-11-03T00:17:48.500Z,13.93
2022-11-03T00:20:20.241Z,11.27
2022-11-03T00:22:52.613Z,11.47
2022-11-03T00:25:21.492Z,11.33
2022-11-03T00:27:57.353Z,13.67
2022-11-03T00:30:25.701Z,9.27
2022-11-03T00:32:54.659Z,11.67
2022-11-03T00:35:23.369Z,13.03
2022-11-03T00:37:52.880Z,10.17
2022-11-03T00:40:23.426Z,12.83
2022-11-03T00:42:52.948Z,11.97
2022-11-03T00:45:21.310Z,9.13
2022-11-03T00:48:07.476Z,10.37
2022-11-03T00:51:17.651Z,12.33
2022-11-03T00:57:08.813Z,13.67
2022-11-03T00:59:46.841Z,10.33
2022-11-03T01:02:15.399Z,13.27
2022-11-03T01:21:12.580Z,13.13
2022-11-03T01:23:42.604Z,9.23
2022-11-03T01:26:13.094Z,10.83
2022-11-03T01:28:43.694Z,11.03
2022-11-03T01:31:16.498Z,12.00
2022-11-03T01:33:46.778Z,9.27
2022-11-03T01:36:15.947Z,12.23
2022-11-03T01:39:15.117Z,8.70
2022-11-03T01:42:03.882Z,9.83
2022-11-03T01:44:35.728Z,8.17
2022-11-03T01:47:28.550Z,6.90
2022-11-03T01:50:07.057Z,8.07
2022-11-03T01:52:41.995Z,8.97
2022-11-03T01:55:14.611Z,9.93
2022-11-03T01:58:13.014Z,6.77
2022-11-03T02:00:47.557Z,11.10
2022-11-03T02:03:18.566Z,11.60
2022-11-03T02:05:51.696Z,6.30
2022-11-03T02:08:26.136Z,8.33
2022-11-03T02:10:54.266Z,9.53
2022-11-03T02:13:48.782Z,9.17
2022-11-03T02:16:48.707Z,7.80
2022-11-03T02:32:09.065Z,7.40
2022-11-03T02:39:14.271Z,11.10
2022-11-03T02:41:44.691Z,11.00
2022-11-03T02:45:20.047Z,13.10
2022-11-03T02:48:25.390Z,10.13
2022-11-03T02:55:24.506Z,7.23
2022-11-03T03:01:47.325Z,10.13
2022-11-03T03:04:22.750Z,10.30
2022-11-03T03:06:54.772Z,11.70
2022-11-03T03:13:21.125Z,10.80
2022-11-03T03:21:40.172Z,10.57
2022-11-03T03:24:22.559Z,11.93
2022-11-03T03:27:11.475Z,12.37
2022-11-03T03:29:44.669Z,14.70
2022-11-03T03:32:18.071Z,14.20
2022-11-03T03:34:53.589Z,10.37
2022-11-03T03:37:34.284Z,13.30
2022-11-03T03:40:08.727Z,12.97
2022-11-03T03:42:38.511Z,12.07
2022-11-03T03:45:10.802Z,12.53
2022-11-03T03:47:45.455Z,14.33
2022-11-03T03:50:14.774Z,16.13
2022-11-03T03:52:45.012Z,13.93
2022-11-03T03:55:20.614Z,16.87
2022-11-03T03:57:57.969Z,18.10
2022-11-03T04:00:31.889Z,13.97
2022-11-03T04:03:00.774Z,20.40
2022-11-03T04:05:29.074Z,17.83
2022-11-03T04:08:06.641Z,20.43
2022-11-03T04:10:36.772Z,20.97
2022-11-03T04:13:23.021Z,18.80
2022-11-03T04:16:09.432Z,12.90
2022-11-03T04:18:57.729Z,17.27
2022-11-03T04:21:45.032Z,15.83
2022-11-03T04:24:18.275Z,15.20
2022-11-03T04:26:48.618Z,16.17
2022-11-03T04:29:16.876Z,12.27
2022-11-03T04:31:45.973Z,17.20
2022-11-03T04:40:56.409Z,14.63
2022-11-03T04:47:18.516Z,14.70
2022-11-03T04:49:48.913Z,12.67
2022-11-03T04:52:40.443Z,16.60
2022-11-03T04:55:48.145Z,11.67
2022-11-03T04:58:21.440Z,14.70
2022-11-03T05:00:57.385Z,14.27
2022-11-03T05:03:32.739Z,13.20
2022-11-03T05:06:38.733Z,15.00
2022-11-03T05:09:17.485Z,13.03
2022-11-03T05:11:48.788Z,16.20
2022-11-03T05:14:21.118Z,13.97
2022-11-03T05:16:53.652Z,13.30
2022-11-03T05:19:25.838Z,14.10
2022-11-03T05:21:55.908Z,14.33
2022-11-03T05:24:28.153Z,12.83
2022-11-03T05:27:00.780Z,18.10
2022-11-03T05:29:41.000Z,19.10
2022-11-03T05:32:16.611Z,18.63
2022-11-03T05:34:48.930Z,27.33
2022-11-03T05:37:40.194Z,45.87
2022-11-03T05:40:21.412Z,50.37
2022-11-03T05:42:54.954Z,57.23
2022-11-03T05:45:26.987Z,47.27
2022-11-03T05:48:01.601Z,51.43
2022-11-03T05:51:00.560Z,42.60
2022-11-03T05:53:33.924Z,35.87
2022-11-03T05:56:05.660Z,26.53
2022-11-03T05:58:38.082Z,23.87
2022-11-03T06:01:13.576Z,19.37
2022-11-03T06:03:43.401Z,20.37
2022-11-03T06:06:26.855Z,21.47
2022-11-03T06:08:59.162Z,19.73
2022-11-03T06:11:31.348Z,18.07
2022-11-03T06:14:01.806Z,21.53
2022-11-03T06:16:42.808Z,16.33
2022-11-03T06:19:22.867Z,23.13
2022-11-03T06:21:54.558Z,23.23
2022-11-03T06:24:26.879Z,26.50
2022-11-03T06:26:55.362Z,26.83
2022-11-03T06:29:56.319Z,21.80
2022-11-03T06:32:28.678Z,18.00
2022-11-03T06:35:28.305Z,22.03
2022-11-03T06:38:21.849Z,22.67
2022-11-03T06:40:51.692Z,19.30
2022-11-03T06:43:29.246Z,21.40
2022-11-03T06:45:59.378Z,15.30
2022-11-03T06:48:35.769Z,15.93
2022-11-03T06:51:23.581Z,24.80
2022-11-03T06:53:53.893Z,20.53
2022-11-03T06:56:38.733Z,22.47
2022-11-03T06:59:16.646Z,23.83
2022-11-03T07:01:58.568Z,23.47
2022-11-03T07:04:34.101Z,17.50
2022-11-03T07:07:05.506Z,19.33
2022-11-03T07:09:47.307Z,18.47
2022-11-03T07:12:25.419Z,14.73
2022-11-03T07:14:55.224Z,15.53
2022-11-03T07:17:26.030Z,19.80
2022-11-03T07:20:01.835Z,14.43
2022-11-03T07:22:31.397Z,15.47
2022-11-03T07:25:12.453Z,14.03
2022-11-03T07:27:45.943Z,16.27
2022-11-03T07:30:24.751Z,17.10
2022-11-03T07:32:55.980Z,12.17
2022-11-03T07:35:53.422Z,13.07
2022-11-03T07:38:32.676Z,18.53
2022-11-03T07:41:02.393Z,17.23
2022-11-03T07:43:34.788Z,12.53
2022-11-03T07:46:04.856Z,13.87
2022-11-03T07:48:46.254Z,16.03
2022-11-03T07:51:23.329Z,13.80
2022-11-03T07:53:58.911Z,12.63
2022-11-03T07:56:30.933Z,13.97
2022-11-03T07:59:02.347Z,15.83
2022-11-03T08:01:32.679Z,15.57
2022-11-03T08:04:06.081Z,15.80
2022-11-03T08:06:34.607Z,14.53
2022-11-03T08:09:07.170Z,12.77
2022-11-03T08:11:35.832Z,9.67
2022-11-03T08:14:04.964Z,15.27
2022-11-03T08:16:33.947Z,14.17
2022-11-03T08:19:02.627Z,12.60
2022-11-03T08:21:30.786Z,13.07
2022-11-03T08:24:05.900Z,7.90
2022-11-03T08:26:35.464Z,9.67
2022-11-03T08:29:11.086Z,13.07
2022-11-03T08:31:39.192Z,10.97
2022-11-03T08:34:09.511Z,10.37
2022-11-03T08:36:38.675Z,8.47
2022-11-03T08:39:10.751Z,10.77
2022-11-03T08:41:40.896Z,12.97
2022-11-03T08:44:09.846Z,9.07
2022-11-03T08:46:38.678Z,11.57
2022-11-03T08:49:08.148Z,10.73
2022-11-03T08:51:40.127Z,7.83
2022-11-03T08:54:11.903Z,9.80
2022-11-03T08:56:45.398Z,11.80
2022-11-03T08:59:14.606Z,9.93
2022-11-03T09:01:43.769Z,10.90
2022-11-03T09:04:12.974Z,10.63
2022-11-03T09:06:42.746Z,14.23
2022-11-03T09:12:04.904Z,9.73
2022-11-03T09:14:36.979Z,12.10
2022-11-03T09:17:06.465Z,8.80
2022-11-03T09:19:34.896Z,9.57
2022-11-03T09:22:03.692Z,10.17
2022-11-03T09:24:32.910Z,10.83
2022-11-03T09:27:02.473Z,9.90
2022-11-03T09:30:06.527Z,11.33
2022-11-03T09:32:26.832Z,9.10
2022-11-03T09:34:58.265Z,9.87
2022-11-03T09:37:27.022Z,13.10
2022-11-03T09:39:56.741Z,9.57
2022-11-03T09:42:29.283Z,12.30
2022-11-03T09:44:59.742Z,13.00
2022-11-03T09:47:32.619Z,9.83
2022-11-03T09:50:06.321Z,10.87
2022-11-03T09:52:38.880Z,8.70
2022-11-03T09:55:15.110Z,10.07
2022-11-03T09:57:44.898Z,7.37
2022-11-03T10:00:23.413Z,11.60
2022-11-03T10:02:52.710Z,11.47
2022-11-03T10:05:24.881Z,9.00
2022-11-03T10:10:29.919Z,8.37
2022-11-03T10:12:58.410Z,14.03
2022-11-03T10:15:28.963Z,13.73
2022-11-03T10:17:57.961Z,13.30
2022-11-03T10:20:26.539Z,11.97
2022-11-03T10:22:55.935Z,18.27
2022-11-03T10:25:35.113Z,15.60
2022-11-03T10:28:15.398Z,14.33
2022-11-03T10:31:10.594Z,12.73
2022-11-03T10:33:42.018Z,12.10
2022-11-03T10:36:29.411Z,11.47
2022-11-03T10:38:59.567Z,11.43
2022-11-03T10:41:33.128Z,8.63
2022-11-03T10:44:08.774Z,11.27
2022-11-03T10:46:56.305Z,10.40
2022-11-03T10:49:25.054Z,10.87
2022-11-03T10:51:55.003Z,11.50
2022-11-03T10:54:26.191Z,11.07
2022-11-03T10:56:54.775Z,16.23
2022-11-03T10:59:27.423Z,9.77
2022-11-03T11:02:00.039Z,15.73
2022-11-03T11:05:01.507Z,17.30
2022-11-03T11:07:37.485Z,15.40
2022-11-03T11:10:15.168Z,11.53
2022-11-03T11:13:25.681Z,11.00
2022-11-03T11:16:07.054Z,9.97
2022-11-03T11:19:13.681Z,12.40
2022-11-03T11:25:06.185Z,13.57
2022-11-03T11:28:03.421Z,13.33
2022-11-03T11:31:02.199Z,9.47
2022-11-03T11:33:33.116Z,9.70
2022-11-03T11:36:30.224Z,9.67
2022-11-03T11:39:03.956Z,10.43
2022-11-03T11:42:12.437Z,7.27
2022-11-03T11:45:06.487Z,9.90
2022-11-03T11:47:50.474Z,6.87
2022-11-03T11:50:31.834Z,7.37
2022-11-03T11:53:19.982Z,9.47
2022-11-03T11:56:00.614Z,8.40
2022-11-03T11:58:39.201Z,7.40
2022-11-03T12:01:22.043Z,10.43
2022-11-03T12:03:52.292Z,9.20
2022-11-03T12:06:37.187Z,5.07
2022-11-03T12:09:20.473Z,9.60
2022-11-03T12:11:58.484Z,9.87
2022-11-03T12:14:38.898Z,6.50
2022-11-03T12:17:36.589Z,6.20
2022-11-03T12:20:41.069Z,7.90
2022-11-03T12:23:42.513Z,6.63
2022-11-03T12:26:21.045Z,10.00
2022-11-03T12:28:53.135Z,9.23
2022-11-03T12:31:22.976Z,12.23
2022-11-03T12:33:52.007Z,8.53
2022-11-03T12:36:20.506Z,10.17
2022-11-03T12:38:48.988Z,6.90
2022-11-03T12:41:41.674Z,10.13
2022-11-03T12:44:17.296Z,8.97
2022-11-03T12:46:53.396Z,8.67
2022-11-03T12:49:24.161Z,8.57
2022-11-03T12:52:05.359Z,21.30
2022-11-03T12:54:44.585Z,6.10
2022-11-03T12:57:13.818Z,7.27
2022-11-03T12:59:44.095Z,9.30
2022-11-03T13:02:13.018Z,8.87
2022-11-03T13:04:41.674Z,8.83
2022-11-03T13:07:14.524Z,5.77
2022-11-03T13:09:43.185Z,8.47
2022-11-03T13:12:52.905Z,9.70
2022-11-03T13:15:28.868Z,6.50
2022-11-03T13:18:17.087Z,9.10
2022-11-03T13:20:46.100Z,8.33
2022-11-03T13:23:17.447Z,10.03
2022-11-03T13:25:48.744Z,6.87
2022-11-03T13:28:17.466Z,10.90
2022-11-03T13:30:49.850Z,7.27
2022-11-03T13:33:24.235Z,12.90
2022-11-03T13:35:52.883Z,7.80
2022-11-03T13:38:22.302Z,10.37
2022-11-03T13:40:56.962Z,7.10
2022-11-03T13:43:27.179Z,7.97
2022-11-03T13:46:39.813Z,10.83
2022-11-03T13:50:19.108Z,13.57
2022-11-03T13:52:50.639Z,7.87
2022-11-03T13:59:27.647Z,9.03
2022-11-03T14:05:00.032Z,5.23
2022-11-03T14:07:29.874Z,7.17
2022-11-03T14:10:00.856Z,9.00
2022-11-03T14:12:31.060Z,10.60
2022-11-03T14:15:04.809Z,10.67
2022-11-03T14:17:35.019Z,9.83
2022-11-03T14:20:05.040Z,8.47
2022-11-03T14:22:38.694Z,12.80
2022-11-03T14:25:08.015Z,9.70
2022-11-03T14:27:37.088Z,10.27
2022-11-03T14:30:09.078Z,8.73
2022-11-03T14:32:40.237Z,8.37
2022-11-03T14:35:12.127Z,12.87
2022-11-03T14:38:06.646Z,10.93
2022-11-03T14:40:57.799Z,8.63
2022-11-03T14:43:29.971Z,7.33
2022-11-03T14:46:03.283Z,9.60
2022-11-03T14:48:32.079Z,6.57
2022-11-03T14:51:00.174Z,7.10
2022-11-03T14:53:30.254Z,7.37
2022-11-03T14:55:58.903Z,5.20
2022-11-03T14:58:28.433Z,9.93
2022-11-03T15:00:56.663Z,6.30
2022-11-03T15:03:29.247Z,9.60
2022-11-03T15:05:58.531Z,7.47
2022-11-03T15:08:35.467Z,4.77
2022-11-03T15:11:07.880Z,7.13
2022-11-03T15:13:45.818Z,7.50
2022-11-03T15:16:16.645Z,7.60
2022-11-03T15:19:08.623Z,5.33
2022-11-03T15:21:37.117Z,8.20
2022-11-03T15:27:01.005Z,9.70
2022-11-03T15:29:37.595Z,8.30
2022-11-03T15:32:07.165Z,12.00
2022-11-03T15:34:37.119Z,6.83
2022-11-03T15:39:59.964Z,11.87
2022-11-03T15:42:30.377Z,14.13
2022-11-03T15:44:58.661Z,11.13
2022-11-03T15:47:26.789Z,9.67
2022-11-03T15:49:55.124Z,11.50
2022-11-03T15:52:23.548Z,8.33
2022-11-03T15:54:51.684Z,11.80
2022-11-03T15:57:32.214Z,9.07
2022-11-03T16:00:01.071Z,7.97
2022-11-03T16:02:41.460Z,11.47
2022-11-03T16:05:11.248Z,11.80
2022-11-03T16:07:40.384Z,9.27
2022-11-03T16:10:14.192Z,13.30
2022-11-03T16:12:44.513Z,17.70
2022-11-03T16:15:12.887Z,26.33
2022-11-03T16:17:45.892Z,14.57
2022-11-03T16:20:14.396Z,14.07
2022-11-03T16:22:42.736Z,14.43
2022-11-03T16:25:12.889Z,17.33
2022-11-03T16:27:46.659Z,13.63
2022-11-03T16:30:16.166Z,9.70
2022-11-03T16:32:44.969Z,9.90
2022-11-03T16:35:13.343Z,9.17
2022-11-03T16:37:41.687Z,15.63
2022-11-03T16:40:19.054Z,20.77
2022-11-03T16:42:49.445Z,22.83
2022-11-03T16:45:32.395Z,33.97
2022-11-03T16:48:07.557Z,33.43
2022-11-03T16:50:40.102Z,24.37
2022-11-03T16:54:24.875Z,22.23
2022-11-03T16:56:55.067Z,22.07
2022-11-03T16:59:26.552Z,27.50
2022-11-03T17:01:55.501Z,20.67
2022-11-03T17:05:15.635Z,19.00
2022-11-03T17:07:47.492Z,18.13
2022-11-03T17:10:23.653Z,21.37
2022-11-03T17:12:51.832Z,26.67
2022-11-03T17:15:35.867Z,25.97
2022-11-03T17:18:10.603Z,23.77
2022-11-03T17:20:38.894Z,24.77
2022-11-03T17:23:07.305Z,25.40
2022-11-03T17:25:37.270Z,21.90
2022-11-03T17:28:34.319Z,24.57
2022-11-03T17:31:04.154Z,27.00
2022-11-03T17:33:33.295Z,25.50
2022-11-03T17:36:02.757Z,24.43
2022-11-03T17:43:05.717Z,19.73
2022-11-03T17:46:39.323Z,21.10
2022-11-03T17:49:23.503Z,24.87
2022-11-03T17:51:53.814Z,26.90
2022-11-03T17:54:31.408Z,31.67
2022-11-03T17:57:01.160Z,29.37
2022-11-03T17:59:33.217Z,21.17
2022-11-03T18:02:17.444Z,31.77
2022-11-03T18:04:47.895Z,21.50
2022-11-03T18:07:21.900Z,26.23
2022-11-03T18:09:50.616Z,24.50
2022-11-03T18:12:39.167Z,30.43
2022-11-03T18:15:12.192Z,27.73
2022-11-03T18:17:40.643Z,34.80
2022-11-03T18:20:17.819Z,25.53
2022-11-03T18:22:46.608Z,25.63
2022-11-03T18:25:18.551Z,19.67
2022-11-03T18:27:46.792Z,27.47
2022-11-03T18:30:20.419Z,22.73
2022-11-03T18:33:18.565Z,30.60
2022-11-03T18:35:48.344Z,28.53
2022-11-03T18:38:36.094Z,21.60
2022-11-03T18:41:31.467Z,25.90
2022-11-03T18:44:04.199Z,22.77
2022-11-03T18:46:32.667Z,24.50
2022-11-03T18:49:00.972Z,26.63
2022-11-03T18:51:32.558Z,26.63
2022-11-03T18:54:02.028Z,32.73
2022-11-03T18:56:34.148Z,24.17
2022-11-03T18:59:06.771Z,19.63
2022-11-03T19:01:35.339Z,21.40
2022-11-03T19:04:03.644Z,23.50
2022-11-03T19:06:33.813Z,22.90
2022-11-03T19:09:02.280Z,23.67
2022-11-03T19:11:37.290Z,21.27
2022-11-03T19:14:08.076Z,19.03
2022-11-03T19:16:37.877Z,25.50
2022-11-03T19:19:09.768Z,17.23
2022-11-03T19:21:39.369Z,14.60
2022-11-03T19:24:08.758Z,18.60
2022-11-03T19:26:44.724Z,18.67
2022-11-03T19:29:26.419Z,17.70
2022-11-03T19:31:55.159Z,18.50
2022-11-03T19:34:27.419Z,15.40
2022-11-03T19:36:59.331Z,20.53
2022-11-03T19:39:33.499Z,17.10
2022-11-03T19:42:20.666Z,19.93
2022-11-03T19:44:53.222Z,20.20
2022-11-03T19:47:25.017Z,20.03
2022-11-03T19:50:22.538Z,21.10
2022-11-03T19:53:11.054Z,17.10
2022-11-03T19:55:43.216Z,18.23
2022-11-03T19:58:18.965Z,19.43
2022-11-03T20:00:50.481Z,25.37
2022-11-03T20:03:19.038Z,20.23
2022-11-03T20:05:51.559Z,21.67
2022-11-03T20:08:24.292Z,20.10
2022-11-03T20:10:53.721Z,19.63
2022-11-03T20:13:27.288Z,23.03
2022-11-03T20:16:00.734Z,35.27
2022-11-03T20:18:29.771Z,27.50
2022-11-03T20:21:01.256Z,30.73
2022-11-03T20:23:33.847Z,28.07
2022-11-03T20:26:03.633Z,22.97
2022-11-03T20:28:33.333Z,22.77
2022-11-03T20:31:03.794Z,24.63
2022-11-03T20:33:32.590Z,41.93
2022-11-03T20:39:47.178Z,25.20
2022-11-03T20:42:22.294Z,21.33
2022-11-03T20:44:53.272Z,20.77
2022-11-03T20:47:24.394Z,22.43
2022-11-03T20:49:53.278Z,22.17
2022-11-03T20:52:48.214Z,16.50
2022-11-03T20:55:26.872Z,27.93
2022-11-03T20:57:55.791Z,19.50
2022-11-03T21:00:26.839Z,26.97
2022-11-03T21:02:57.229Z,26.57
2022-11-03T21:05:29.306Z,21.43
2022-11-03T21:07:58.068Z,20.40
2022-11-03T21:10:44.299Z,20.80
2022-11-03T21:13:18.011Z,16.70
2022-11-03T21:16:25.297Z,19.10
2022-11-03T21:19:12.022Z,16.60
2022-11-03T21:21:41.052Z,17.90
2022-11-03T21:24:34.507Z,20.33
2022-11-03T21:30:49.007Z,18.17
2022-11-03T21:33:27.572Z,17.77
2022-11-03T21:36:00.223Z,16.60
2022-11-03T21:38:33.210Z,19.90
2022-11-03T21:41:16.190Z,17.07
2022-11-03T21:44:03.069Z,23.93
2022-11-03T21:46:38.734Z,20.73
2022-11-03T21:52:48.106Z,20.17
2022-11-03T21:55:21.336Z,30.83
2022-11-03T21:57:55.786Z,23.60
2022-11-03T22:00:34.076Z,21.37
2022-11-03T22:03:03.204Z,19.00
2022-11-03T22:05:35.445Z,22.93
2022-11-03T22:08:08.632Z,19.33
2022-11-03T22:10:43.368Z,14.87
2022-11-03T22:13:17.879Z,18.50
2022-11-03T22:19:58.528Z,17.63
2022-11-03T22:27:08.481Z,16.77
2022-11-03T22:32:54.052Z,16.70
2022-11-03T22:35:42.692Z,27.43
2022-11-03T22:38:15.597Z,25.00
2022-11-03T22:41:04.304Z,36.90
2022-11-03T22:43:54.063Z,43.33
2022-11-03T22:46:23.322Z,22.23
2022-11-03T22:48:52.894Z,25.63
2022-11-03T22:51:22.242Z,30.83
2022-11-03T22:54:08.093Z,21.93
2022-11-03T22:56:37.577Z,25.17
2022-11-03T22:59:06.404Z,19.20
2022-11-03T23:01:36.382Z,21.87
2022-11-03T23:04:13.682Z,13.67
2022-11-03T23:06:52.866Z,15.10
2022-11-03T23:09:21.593Z,14.93
2022-11-03T23:11:50.493Z,22.37
2022-11-03T23:14:50.491Z,22.53
2022-11-03T23:17:20.298Z,21.43
2022-11-03T23:20:12.988Z,24.07
2022-11-03T23:22:56.303Z,25.03
2022-11-03T23:25:41.208Z,25.30
2022-11-03T23:28:18.276Z,20.20
2022-11-03T23:30:47.425Z,18.37
2022-11-03T23:33:29.722Z,21.47
2022-11-03T23:36:14.200Z,24.10
2022-11-03T23:38:47.802Z,24.37
2022-11-03T23:41:33.325Z,40.57
2022-11-03T23:44:05.162Z,40.10
2022-11-03T23:46:53.140Z,34.00
2022-11-03T23:49:22.568Z,30.73
2022-11-03T23:52:00.502Z,35.10
2022-11-03T23:54:29.103Z,22.33
2022-11-03T23:57:16.282Z,20.63
2022-11-03T23:59:46.796Z,26.00
